Terminal Aerodrome Forecast
Issued by NWS Twin Cities, MN

Home | Current Version | Previous Version | Text Only | Print | Product List | Glossary On
Versions: 1 2 3 4 5 6 7 8 9 10 11 12 13 14 15 16 17
213
FTUS43 KMPX 261727
TAFEAU
TAF
KEAU 261727Z 2618/2718 27008KT P6SM SCT007 OVC015
     FM262000 27010KT P6SM BKN015 OVC025
     FM270200 29007KT P6SM SCT015 BKN025
     FM270600 29007KT P6SM BKN025
     FM270900 28007KT P6SM BKN015
     FM271400 30008KT P6SM BKN025=

USA.gov is the U.S. government's official web portal to all federal, state and local government web resources and services.